Hel, Poland
Current Conditions -  °F | °C
As of 10:30 AM on Thursday 27 Nov 2014 (Local Time) from EPGD Reporting Station
Haze Haze  
Wind Chill: 34°   Ceiling: 300
Heat Index: 34°   Visibility: 1.2mi
Dew Point: 34°   Wind: 1mph
Humidity: 100%   Direction: NA
Pressure: 30.18"   Gusts: NA
Location:  54.6°N, 18.82°E
Report Text: EPGD 270830Z VRB01KT 2000 BR BKN003 BKN030 01/01 Q1022
Loading
Personal Weather Stations






























Interactive Weather Map New forecast layout! Learn more

10-Day Weather Forecast

Advertisements
Track Severe Weather on mobile